Time;durP1;ratioP1;P1;durP2;ratioP2;P2;SDS_P1;SDS_P2;PMS_P1;PMS_P2;Temp;Humidity;BMP_temperature;BMP_pressure;BME280_temperature;BME280_humidity;BME280_pressure;Samples;Min_cycle;Max_cycle;Signal;HPM_P1;HPM_P2
2021/11/14 00:01:20;;;;;;;4.53;2.35;;;12.60;73.60;;;;;;2333931;54;20945;-70
2021/11/14 00:03:47;;;;;;;3.85;2.17;;;12.60;73.70;;;;;;2327402;54;21693;-70
2021/11/14 00:06:14;;;;;;;5.45;3.25;;;12.60;73.70;;;;;;2342306;54;20992;-71
2021/11/14 00:08:40;;;;;;;4.70;2.40;;;12.50;73.60;;;;;;2589868;53;21462;-70
2021/11/14 00:11:16;;;;;;;5.10;2.90;;;12.50;73.70;;;;;;2331102;54;20992;-70
2021/11/14 00:13:44;;;;;;;3.90;2.20;;;12.50;73.60;;;;;;2301166;55;21378;-70
2021/11/14 00:16:11;;;;;;;3.58;1.80;;;12.50;73.60;;;;;;2323429;55;20922;-70
2021/11/14 00:18:39;;;;;;;3.90;2.12;;;12.50;73.60;;;;;;2589524;53;20940;-71
2021/11/14 00:21:06;;;;;;;3.72;2.35;;;12.50;73.60;;;;;;2342674;54;21017;-71
2021/11/14 00:23:33;;;;;;;4.65;2.37;;;12.30;73.50;;;;;;2557365;53;21020;-70
2021/11/14 00:26:00;;;;;;;4.32;2.70;;;12.40;73.70;;;;;;2320262;54;21025;-71
2021/11/14 00:28:28;;;;;;;5.25;3.10;;;12.40;73.80;;;;;;2340314;54;21037;-70
2021/11/14 00:30:54;;;;;;;9.15;3.65;;;12.40;73.90;;;;;;2329070;54;20937;-71
2021/11/14 00:33:21;;;;;;;5.45;3.20;;;12.40;73.90;;;;;;2563451;53;21819;-71
2021/11/14 00:35:52;;;;;;;5.62;3.30;;;12.40;73.90;;;;;;2322390;54;21017;-71
2021/11/14 00:38:21;;;;;;;5.20;2.95;;;12.50;74.00;;;;;;2329443;54;21010;-70
2021/11/14 00:40:47;;;;;;;7.40;3.90;;;12.40;73.90;;;;;;2333376;54;20905;-71
2021/11/14 00:43:15;;;;;;;6.90;3.62;;;12.40;74.00;;;;;;2562564;53;21091;-71
2021/11/14 00:45:44;;;;;;;6.43;3.78;;;12.40;74.00;;;;;;2550892;53;21003;-71
2021/11/14 00:48:12;;;;;;;7.00;3.85;;;12.40;74.10;;;;;;2573052;53;21373;-71
2021/11/14 00:50:43;;;;;;;6.43;3.50;;;12.40;74.10;;;;;;2588076;53;20957;-71
2021/11/14 00:53:11;;;;;;;7.30;3.97;;;12.40;74.20;;;;;;2343161;54;21056;-71
2021/11/14 00:55:38;;;;;;;7.70;4.10;;;12.40;74.30;;;;;;2324314;54;20937;-71
2021/11/14 00:58:05;;;;;;;6.60;3.60;;;12.40;74.30;;;;;;2573016;53;20965;-71
2021/11/14 01:00:32;;;;;;;6.32;3.45;;;12.40;74.30;;;;;;2333876;54;20933;-71
2021/11/14 01:02:59;;;;;;;5.95;3.30;;;12.40;74.40;;;;;;2590043;53;20933;-71
2021/11/14 01:05:25;;;;;;;5.45;2.95;;;12.40;74.40;;;;;;2590502;53;20949;-71
2021/11/14 01:07:52;;;;;;;5.32;3.03;;;12.40;74.40;;;;;;2589905;53;20892;-71
2021/11/14 01:10:25;;;;;;;6.10;3.85;;;12.40;74.40;;;;;;2343508;54;20921;-71
2021/11/14 01:12:51;;;;;;;5.55;3.20;;;12.40;74.40;;;;;;2589479;53;20954;-71
2021/11/14 01:15:18;;;;;;;5.03;3.00;;;12.40;74.40;;;;;;2321483;54;20993;-71
2021/11/14 01:17:44;;;;;;;5.55;3.30;;;12.40;74.50;;;;;;2549239;53;20973;-71
2021/11/14 01:20:23;;;;;;;6.62;3.65;;;12.40;74.50;;;;;;2329908;54;21096;-71
2021/11/14 01:22:51;;;;;;;5.50;3.08;;;12.40;74.40;;;;;;2322272;54;20973;-71
2021/11/14 01:25:19;;;;;;;5.55;3.17;;;12.50;74.70;;;;;;2321087;55;20945;-72
2021/11/14 01:27:45;;;;;;;6.07;3.50;;;12.40;74.50;;;;;;2324493;54;20900;-71
2021/11/14 01:30:15;;;;;;;5.20;3.00;;;12.40;74.50;;;;;;2584199;53;21239;-71
2021/11/14 01:32:42;;;;;;;5.70;3.22;;;12.40;74.40;;;;;;2324213;54;20957;-71
2021/11/14 01:35:10;;;;;;;4.25;2.50;;;12.40;74.30;;;;;;2589761;53;20905;-71
2021/11/14 01:37:36;;;;;;;5.93;3.35;;;12.40;74.30;;;;;;2330548;54;20968;-71
2021/11/14 01:40:04;;;;;;;5.22;3.25;;;12.40;74.30;;;;;;2564106;53;21454;-72
2021/11/14 01:42:30;;;;;;;5.37;2.87;;;12.40;74.40;;;;;;2319693;54;21037;-71
2021/11/14 01:44:57;;;;;;;6.03;3.67;;;12.40;74.40;;;;;;2583984;53;20961;-71
2021/11/14 01:47:23;;;;;;;6.28;3.67;;;12.40;74.40;;;;;;2341304;54;20985;-71
2021/11/14 01:49:50;;;;;;;5.55;3.10;;;12.40;74.40;;;;;;2563215;53;20952;-71
2021/11/14 01:52:34;;;;;;;5.03;2.85;;;12.40;74.50;;;;;;2556405;53;21013;-71
2021/11/14 01:55:01;;;;;;;5.03;2.60;;;12.40;74.50;;;;;;2584069;53;21604;-71
2021/11/14 01:57:27;;;;;;;4.37;2.37;;;12.40;74.50;;;;;;2329798;54;21033;-71
2021/11/14 01:59:53;;;;;;;4.82;2.87;;;12.40;74.50;;;;;;2319028;54;20949;-71
2021/11/14 02:02:20;;;;;;;4.95;2.90;;;12.40;74.50;;;;;;2327465;54;21064;-71
2021/11/14 02:04:46;;;;;;;5.80;3.40;;;12.40;74.40;;;;;;2581643;53;21006;-71
2021/11/14 02:07:16;;;;;;;5.10;2.90;;;12.40;74.40;;;;;;2338587;54;20961;-71
2021/11/14 02:09:43;;;;;;;4.80;2.83;;;12.40;74.40;;;;;;2324268;54;20973;-71
2021/11/14 02:12:13;;;;;;;4.80;2.62;;;12.40;74.40;;;;;;2329283;54;20933;-71
2021/11/14 02:14:40;;;;;;;4.82;2.97;;;12.50;74.50;;;;;;2343158;54;20945;-72
2021/11/14 02:17:06;;;;;;;4.82;3.08;;;12.50;74.50;;;;;;2345573;54;21009;-71
2021/11/14 02:19:33;;;;;;;4.57;2.87;;;12.50;74.50;;;;;;2320921;54;21100;-71
2021/11/14 02:21:59;;;;;;;5.15;2.65;;;12.50;74.50;;;;;;2588794;53;20989;-70
2021/11/14 02:24:26;;;;;;;5.32;2.72;;;12.50;74.50;;;;;;2343687;54;21846;-71
2021/11/14 02:26:53;;;;;;;4.60;2.47;;;12.50;74.40;;;;;;2343378;54;20965;-71
2021/11/14 02:29:19;;;;;;;3.58;1.98;;;12.40;74.20;;;;;;2343566;54;21690;-71
2021/11/14 02:31:45;;;;;;;3.70;1.70;;;12.40;74.10;;;;;;2343090;54;20937;-71
2021/11/14 02:34:12;;;;;;;5.80;2.47;;;12.40;74.10;;;;;;2342900;54;20949;-72
2021/11/14 02:36:38;;;;;;;3.33;1.83;;;12.40;74.10;;;;;;2574852;53;21436;-71
2021/11/14 02:39:05;;;;;;;3.55;1.80;;;12.40;74.20;;;;;;2333919;54;20901;-71
2021/11/14 02:41:31;;;;;;;3.83;2.00;;;12.40;74.20;;;;;;2342464;54;20993;-72
2021/11/14 02:43:58;;;;;;;3.83;1.73;;;12.40;74.30;;;;;;2589553;53;21506;-71
2021/11/14 02:46:24;;;;;;;3.30;1.85;;;12.40;74.30;;;;;;2336626;54;20956;-71
2021/11/14 02:48:51;;;;;;;3.83;2.17;;;12.40;74.30;;;;;;2330805;54;21087;-71
2021/11/14 02:51:19;;;;;;;3.53;2.17;;;12.40;74.40;;;;;;2572587;53;20928;-71
2021/11/14 02:53:46;;;;;;;4.18;2.15;;;12.40;74.50;;;;;;2330739;54;20973;-71
2021/11/14 02:56:13;;;;;;;3.35;1.80;;;12.40;74.50;;;;;;2322303;54;20953;-70
2021/11/14 02:58:41;;;;;;;3.30;1.90;;;12.40;74.50;;;;;;2569032;53;20965;-71
2021/11/14 03:03:01;;;;;;;3.62;2.08;;;12.40;74.50;;;;;;2327429;54;21005;-71
2021/11/14 03:05:27;;;;;;;3.55;1.80;;;12.40;74.40;;;;;;2323335;55;21041;-71
2021/11/14 03:07:54;;;;;;;3.58;1.98;;;12.40;74.30;;;;;;2571043;53;21525;-71
2021/11/14 03:10:25;;;;;;;3.65;2.00;;;12.40;74.50;;;;;;2335014;54;21008;-71
2021/11/14 03:13:00;;;;;;;3.63;1.90;;;12.40;74.50;;;;;;2566645;53;22454;-71
2021/11/14 03:15:28;;;;;;;3.78;2.22;;;12.40;74.50;;;;;;2589941;53;21649;-71
2021/11/14 03:17:55;;;;;;;3.83;2.20;;;12.40;74.60;;;;;;2343245;54;21001;-71
2021/11/14 03:20:22;;;;;;;4.10;2.03;;;12.40;74.70;;;;;;2589428;53;20897;-71
2021/11/14 03:22:48;;;;;;;3.62;1.70;;;12.40;74.60;;;;;;2343252;54;21033;-72
2021/11/14 03:25:14;;;;;;;3.22;1.62;;;12.40;74.60;;;;;;2344880;54;20960;-71
2021/11/14 03:27:41;;;;;;;3.08;1.65;;;12.40;74.70;;;;;;2320996;54;21012;-71
2021/11/14 03:30:08;;;;;;;3.00;1.80;;;12.40;74.70;;;;;;2340743;54;21001;-72
2021/11/14 03:32:34;;;;;;;3.45;1.83;;;12.40;74.70;;;;;;2327715;54;21085;-71
2021/11/14 03:35:01;;;;;;;2.85;1.55;;;12.40;74.80;;;;;;2589622;53;20984;-72
2021/11/14 03:37:27;;;;;;;3.62;1.65;;;12.50;74.90;;;;;;2342129;54;20965;-71
2021/11/14 03:39:54;;;;;;;3.80;1.92;;;12.40;74.80;;;;;;2342686;54;20976;-72
2021/11/14 03:42:23;;;;;;;3.80;2.20;;;12.50;74.90;;;;;;2342420;54;20941;-71
2021/11/14 03:44:49;;;;;;;4.75;3.17;;;12.50;74.90;;;;;;2332872;54;21940;-71
2021/11/14 03:47:16;;;;;;;4.55;2.95;;;12.50;74.80;;;;;;2334557;54;20913;-71
2021/11/14 03:49:42;;;;;;;4.60;2.95;;;12.50;74.80;;;;;;2567329;53;20945;-71
2021/11/14 03:52:10;;;;;;;4.60;2.67;;;12.50;74.70;;;;;;2338506;54;21026;-71
2021/11/14 03:54:36;;;;;;;3.80;2.35;;;12.40;74.60;;;;;;2343548;54;21032;-71
2021/11/14 03:57:07;;;;;;;4.35;2.05;;;12.50;74.70;;;;;;2328812;54;20976;-71
2021/11/14 03:59:34;;;;;;;3.60;2.20;;;12.50;74.70;;;;;;2330045;54;20990;-72
2021/11/14 04:02:00;;;;;;;3.00;1.45;;;12.50;74.70;;;;;;2302273;54;21157;-72
2021/11/14 04:04:28;;;;;;;3.20;1.70;;;12.50;74.80;;;;;;2318868;54;20952;-71
2021/11/14 04:06:55;;;;;;;2.70;1.30;;;12.50;74.70;;;;;;2586788;53;20941;-71
2021/11/14 04:09:21;;;;;;;3.45;1.62;;;12.50;74.80;;;;;;2327071;54;21024;-71
2021/11/14 04:11:47;;;;;;;2.83;1.50;;;12.50;74.80;;;;;;2324557;54;20945;-71
2021/11/14 04:14:14;;;;;;;2.87;1.60;;;12.50;74.80;;;;;;2339266;54;21001;-71
2021/11/14 04:16:43;;;;;;;3.03;1.65;;;12.50;74.70;;;;;;2342962;54;20914;-71
2021/11/14 04:19:11;;;;;;;3.15;1.83;;;12.50;74.70;;;;;;2575423;53;20977;-71
2021/11/14 04:21:38;;;;;;;2.65;1.40;;;12.50;74.60;;;;;;2326908;54;21044;-71
2021/11/14 04:24:05;;;;;;;3.03;1.70;;;12.50;74.60;;;;;;2342878;54;20985;-71
2021/11/14 04:26:35;;;;;;;3.25;1.77;;;12.50;74.60;;;;;;2343222;54;20913;-71
2021/11/14 04:29:01;;;;;;;3.12;1.62;;;12.50;74.60;;;;;;2577974;53;20936;-72
2021/11/14 04:31:28;;;;;;;4.90;2.00;;;12.50;74.60;;;;;;2329942;54;20953;-72
2021/11/14 04:33:55;;;;;;;3.20;1.70;;;12.50;74.60;;;;;;2589980;53;20969;-71
2021/11/14 04:36:21;;;;;;;2.87;1.33;;;12.50;74.70;;;;;;2345681;54;21031;-71
2021/11/14 04:38:47;;;;;;;3.08;1.73;;;12.50;74.70;;;;;;2322575;54;20964;-72
2021/11/14 04:41:14;;;;;;;3.50;2.00;;;12.50;74.70;;;;;;2324221;54;21453;-71
2021/11/14 04:43:40;;;;;;;2.97;1.60;;;12.50;74.70;;;;;;2343493;54;20985;-71
2021/11/14 04:46:06;;;;;;;2.95;1.62;;;12.50;74.80;;;;;;2305942;55;20961;-72
2021/11/14 04:48:33;;;;;;;2.65;1.45;;;12.50;74.90;;;;;;2333938;54;21011;-71
2021/11/14 04:50:59;;;;;;;2.90;1.60;;;12.50;74.90;;;;;;2324311;54;20969;-72
2021/11/14 04:53:26;;;;;;;3.12;1.83;;;12.60;74.90;;;;;;2580276;53;21152;-71
2021/11/14 04:55:52;;;;;;;3.60;1.85;;;12.50;74.70;;;;;;2321225;54;20961;-72
2021/11/14 04:58:18;;;;;;;2.60;1.50;;;12.50;74.70;;;;;;2342186;54;21013;-71
2021/11/14 05:00:47;;;;;;;3.80;2.17;;;12.50;74.70;;;;;;2343567;54;20925;-71
2021/11/14 05:03:13;;;;;;;3.20;1.87;;;12.50;74.70;;;;;;2589879;53;21338;-72
2021/11/14 05:05:41;;;;;;;3.30;1.70;;;12.50;74.60;;;;;;2343426;54;20945;-72
2021/11/14 05:08:08;;;;;;;5.05;2.10;;;12.50;74.50;;;;;;2333838;54;21056;-71
2021/11/14 05:10:35;;;;;;;3.50;1.80;;;12.60;74.60;;;;;;2329438;54;20968;-72
2021/11/14 05:13:04;;;;;;;3.05;1.58;;;12.50;74.40;;;;;;2343277;54;21037;-72
2021/11/14 05:15:37;;;;;;;2.53;1.27;;;12.50;74.30;;;;;;2343504;54;20953;-72
2021/11/14 05:18:03;;;;;;;2.70;1.40;;;12.50;74.30;;;;;;2343398;54;20951;-72
2021/11/14 05:20:32;;;;;;;3.95;1.95;;;12.50;74.40;;;;;;2343247;54;21036;-71
2021/11/14 05:23:00;;;;;;;3.30;1.65;;;12.50;74.50;;;;;;2342574;54;20993;-72
2021/11/14 05:25:26;;;;;;;2.80;1.50;;;12.50;74.60;;;;;;2590139;53;20948;-72
2021/11/14 05:27:54;;;;;;;2.67;1.55;;;12.50;74.60;;;;;;2589423;53;20938;-71
2021/11/14 05:30:21;;;;;;;3.00;1.42;;;12.50;74.60;;;;;;2326386;54;21023;-72
2021/11/14 05:32:47;;;;;;;2.72;1.50;;;12.50;74.70;;;;;;2569328;53;20924;-72
2021/11/14 05:35:15;;;;;;;3.03;1.40;;;12.40;74.60;;;;;;2324728;54;20937;-71
2021/11/14 05:37:41;;;;;;;2.75;1.45;;;12.40;74.60;;;;;;2335930;54;20978;-72
2021/11/14 05:40:08;;;;;;;2.87;1.37;;;12.50;74.60;;;;;;2323674;54;20885;-72
2021/11/14 05:42:35;;;;;;;2.70;1.33;;;12.50;74.70;;;;;;2335720;54;20913;-71
2021/11/14 05:45:02;;;;;;;2.20;1.10;;;12.40;74.60;;;;;;2338725;54;21037;-72
2021/11/14 05:47:29;;;;;;;3.22;1.40;;;12.50;74.70;;;;;;2556636;53;20933;-72
2021/11/14 05:49:56;;;;;;;3.45;1.30;;;12.50;74.70;;;;;;2324214;54;21044;-72
2021/11/14 05:52:23;;;;;;;2.35;1.15;;;12.50;74.80;;;;;;2331249;54;21008;-71
2021/11/14 05:54:49;;;;;;;2.90;1.45;;;12.50;74.80;;;;;;2326928;54;21889;-71
2021/11/14 05:57:15;;;;;;;3.03;1.45;;;12.50;74.70;;;;;;2588982;53;21794;-72
2021/11/14 06:02:44;;;;;;;2.72;1.33;;;12.50;74.80;;;;;;2344725;54;20913;-72
2021/11/14 06:07:48;;;;;;;2.50;1.12;;;12.50;74.80;;;;;;2589029;53;20977;-72
2021/11/14 06:10:15;;;;;;;1.98;0.90;;;12.50;74.80;;;;;;2588988;53;20957;-72
2021/11/14 06:12:41;;;;;;;3.08;1.40;;;12.50;74.70;;;;;;2569477;53;20940;-72
2021/11/14 06:15:09;;;;;;;3.22;1.52;;;12.50;74.70;;;;;;2336019;54;20973;-72
2021/11/14 06:17:35;;;;;;;2.72;1.37;;;12.50;74.70;;;;;;2342099;54;21221;-71
2021/11/14 06:20:02;;;;;;;2.83;1.42;;;12.50;74.80;;;;;;2343169;54;20966;-72
2021/11/14 06:22:29;;;;;;;2.67;1.30;;;12.50;74.80;;;;;;2332858;54;21386;-71
2021/11/14 06:24:56;;;;;;;2.80;1.50;;;12.50;74.80;;;;;;2330144;54;21045;-71
2021/11/14 06:27:23;;;;;;;3.45;1.55;;;12.50;74.70;;;;;;2557755;53;21434;-71
2021/11/14 06:29:49;;;;;;;4.72;1.75;;;12.50;74.70;;;;;;2322203;54;20977;-71
2021/11/14 06:32:19;;;;;;;3.08;1.60;;;12.50;74.60;;;;;;2324045;54;20984;-71
2021/11/14 06:34:45;;;;;;;3.40;1.95;;;12.50;74.60;;;;;;2320992;54;21004;-71
2021/11/14 06:37:13;;;;;;;3.90;2.35;;;12.50;74.50;;;;;;2339442;54;21009;-72
2021/11/14 06:39:41;;;;;;;4.40;2.53;;;12.50;74.40;;;;;;2329354;54;21553;-71
2021/11/14 06:42:08;;;;;;;3.85;2.17;;;12.50;74.30;;;;;;2589353;53;21429;-71
2021/11/14 06:44:35;;;;;;;3.65;1.95;;;12.50;74.40;;;;;;2341618;54;20956;-72
2021/11/14 06:47:01;;;;;;;3.58;2.03;;;12.40;74.30;;;;;;2306756;55;20969;-71
2021/11/14 06:49:27;;;;;;;4.00;2.00;;;12.40;74.50;;;;;;2343738;54;20945;-71
2021/11/14 06:51:53;;;;;;;3.80;2.10;;;12.40;74.50;;;;;;2343168;54;21013;-71
2021/11/14 06:54:19;;;;;;;4.32;2.35;;;12.40;74.50;;;;;;2327026;54;21794;-72
2021/11/14 06:56:49;;;;;;;3.45;1.95;;;12.40;74.50;;;;;;2333090;53;20997;-71
2021/11/14 06:59:15;;;;;;;4.25;2.58;;;12.40;74.50;;;;;;2323902;53;20967;-72
2021/11/14 07:01:42;;;;;;;4.25;2.47;;;12.40;74.50;;;;;;2334111;54;20997;-71
2021/11/14 07:04:08;;;;;;;4.93;2.65;;;12.40;74.50;;;;;;2320933;54;21537;-72
2021/11/14 07:06:37;;;;;;;4.82;2.97;;;12.40;74.50;;;;;;2331919;54;21378;-72
2021/11/14 07:09:04;;;;;;;3.85;2.45;;;12.40;74.50;;;;;;2343252;54;20973;-71
2021/11/14 07:11:32;;;;;;;4.03;2.42;;;12.40;74.50;;;;;;2343097;54;21073;-72
2021/11/14 07:14:00;;;;;;;5.28;2.35;;;12.40;74.50;;;;;;2567167;53;21422;-72
2021/11/14 07:16:28;;;;;;;3.33;1.70;;;12.40;74.60;;;;;;2556499;53;21072;-71
2021/11/14 07:18:55;;;;;;;4.93;2.42;;;12.40;74.70;;;;;;2322776;54;20992;-72
2021/11/14 07:21:24;;;;;;;4.82;2.60;;;12.40;74.60;;;;;;2322723;54;20941;-72
2021/11/14 07:23:51;;;;;;;5.20;3.10;;;12.40;74.60;;;;;;2333926;54;21029;-72
2021/11/14 07:26:21;;;;;;;5.57;3.00;;;12.40;74.60;;;;;;2323260;54;20997;-71
2021/11/14 07:28:47;;;;;;;4.43;2.92;;;12.40;74.70;;;;;;2327695;54;21004;-71
2021/11/14 07:31:13;;;;;;;5.43;3.05;;;12.40;74.80;;;;;;2343798;54;20968;-71
2021/11/14 07:33:40;;;;;;;5.90;3.20;;;12.40;74.90;;;;;;2557438;53;20977;-71
2021/11/14 07:36:07;;;;;;;5.68;3.20;;;12.40;74.90;;;;;;2556679;53;20901;-71
2021/11/14 07:38:35;;;;;;;6.35;3.30;;;12.40;75.00;;;;;;2331983;54;20976;-71
2021/11/14 07:41:02;;;;;;;5.22;3.20;;;12.40;75.10;;;;;;2345380;54;20909;-71
2021/11/14 07:43:30;;;;;;;7.00;3.53;;;12.40;75.20;;;;;;2555519;53;21784;-71
2021/11/14 07:45:56;;;;;;;6.47;3.33;;;12.40;75.20;;;;;;2319809;54;20949;-71
2021/11/14 07:48:23;;;;;;;5.68;2.80;;;12.50;75.30;;;;;;2343295;54;20937;-71
2021/11/14 07:50:54;;;;;;;6.05;3.33;;;12.50;75.40;;;;;;2337053;54;21032;-71
2021/11/14 07:53:21;;;;;;;6.18;2.62;;;12.40;75.30;;;;;;2329956;54;20967;-72
2021/11/14 07:55:47;;;;;;;6.00;3.30;;;12.50;75.40;;;;;;2329341;54;21801;-72
2021/11/14 07:58:15;;;;;;;5.00;3.03;;;12.50;75.40;;;;;;2568604;53;20997;-71
2021/11/14 08:00:43;;;;;;;5.25;3.03;;;12.50;75.40;;;;;;2343223;54;20890;-72
2021/11/14 08:03:12;;;;;;;4.95;2.80;;;12.50;75.40;;;;;;2343859;54;20933;-72
2021/11/14 08:05:39;;;;;;;4.97;3.00;;;12.60;75.40;;;;;;2321332;54;20993;-71
2021/11/14 08:08:18;;;;;;;4.95;3.00;;;12.60;75.50;;;;;;2587083;53;21409;-72
2021/11/14 08:10:46;;;;;;;4.97;2.85;;;12.60;75.40;;;;;;2342618;54;21067;-72
2021/11/14 08:13:13;;;;;;;4.80;2.50;;;12.60;75.60;;;;;;2328501;54;21075;-72
2021/11/14 08:15:40;;;;;;;4.82;2.85;;;12.60;75.60;;;;;;2341335;54;20961;-72
2021/11/14 08:18:08;;;;;;;6.60;3.80;;;12.60;75.70;;;;;;2589746;53;20905;-72
2021/11/14 08:20:36;;;;;;;5.95;3.95;;;12.70;75.70;;;;;;2561175;53;20894;-72
2021/11/14 08:23:05;;;;;;;5.80;3.25;;;12.70;75.70;;;;;;2582192;53;21033;-72
2021/11/14 08:25:31;;;;;;;5.53;3.60;;;12.70;75.70;;;;;;2571900;53;21287;-72
2021/11/14 08:27:58;;;;;;;6.53;3.70;;;12.80;75.70;;;;;;2588229;53;21639;-72
2021/11/14 08:30:24;;;;;;;4.95;3.22;;;12.80;75.70;;;;;;2563406;53;20909;-72
2021/11/14 08:32:51;;;;;;;4.70;2.90;;;12.80;75.70;;;;;;2311722;55;20933;-71
2021/11/14 08:35:18;;;;;;;4.87;2.67;;;12.80;75.70;;;;;;2581224;53;21513;-71
2021/11/14 08:37:45;;;;;;;4.50;2.62;;;12.80;75.70;;;;;;2578987;53;21016;-71
2021/11/14 08:40:12;;;;;;;3.87;2.40;;;12.80;75.70;;;;;;2326913;54;21578;-72
2021/11/14 08:42:39;;;;;;;4.62;2.70;;;12.90;75.90;;;;;;2545189;53;20917;-72
2021/11/14 08:45:06;;;;;;;4.37;2.72;;;12.90;76.00;;;;;;2340088;54;20977;-72
2021/11/14 08:47:33;;;;;;;4.20;2.55;;;12.90;76.00;;;;;;2570836;53;21401;-71
2021/11/14 08:50:01;;;;;;;4.80;2.87;;;13.00;75.90;;;;;;2321915;54;20937;-72
2021/11/14 08:52:29;;;;;;;4.62;2.78;;;13.00;75.60;;;;;;2590181;53;20925;-71
2021/11/14 08:54:56;;;;;;;5.37;2.95;;;13.00;75.60;;;;;;2324933;54;21025;-72
2021/11/14 08:57:24;;;;;;;5.40;3.00;;;13.00;75.50;;;;;;2562624;53;20901;-72
2021/11/14 08:59:56;;;;;;;4.37;2.75;;;13.00;75.40;;;;;;2343265;54;21132;-71
2021/11/14 09:02:26;;;;;;;4.78;2.75;;;13.00;75.40;;;;;;2585835;53;21628;-71
2021/11/14 09:04:55;;;;;;;4.90;3.12;;;13.00;75.50;;;;;;2556417;53;20976;-71
2021/11/14 09:07:21;;;;;;;5.45;3.28;;;13.10;75.70;;;;;;2564460;53;21752;-72
2021/11/14 09:09:48;;;;;;;4.70;3.00;;;13.10;75.90;;;;;;2586879;53;21377;-72
2021/11/14 09:12:15;;;;;;;5.45;3.12;;;13.10;76.10;;;;;;2339744;54;20940;-72
2021/11/14 09:14:42;;;;;;;5.97;3.00;;;13.10;76.30;;;;;;2320408;54;20956;-71
2021/11/14 09:17:11;;;;;;;5.40;3.20;;;13.20;76.60;;;;;;2562701;53;20945;-71
2021/11/14 09:19:38;;;;;;;5.43;3.20;;;13.20;76.70;;;;;;2331332;54;20936;-72
2021/11/14 09:22:05;;;;;;;7.20;2.97;;;13.30;77.10;;;;;;2562316;53;20921;-72
2021/11/14 09:24:31;;;;;;;5.68;3.62;;;13.30;77.10;;;;;;2323757;54;20957;-72
2021/11/14 09:26:59;;;;;;;7.30;3.95;;;13.40;77.40;;;;;;2343463;54;21532;-72
2021/11/14 09:29:25;;;;;;;6.97;4.03;;;13.50;77.60;;;;;;2344209;54;21352;-72
2021/11/14 09:31:52;;;;;;;6.78;4.18;;;13.60;77.80;;;;;;2566383;53;20988;-72
2021/11/14 09:34:18;;;;;;;6.97;4.30;;;13.60;77.90;;;;;;2329560;54;20929;-72
2021/11/14 09:36:47;;;;;;;7.12;4.50;;;13.70;77.90;;;;;;2363549;53;3017940;-72
2021/11/14 09:39:14;;;;;;;6.43;4.40;;;13.80;77.70;;;;;;2328486;54;21693;-72
2021/11/14 09:41:43;;;;;;;7.00;4.57;;;13.90;77.70;;;;;;2577185;53;20917;-72
2021/11/14 09:44:11;;;;;;;6.30;4.03;;;13.90;77.30;;;;;;2343231;54;20890;-72
2021/11/14 09:46:59;;;;;;;7.15;4.15;;;14.00;76.90;;;;;;2324110;54;20914;-72
2021/11/14 09:49:30;;;;;;;7.60;3.97;;;14.00;76.30;;;;;;2343387;54;20917;-72
2021/11/14 09:51:58;;;;;;;6.57;4.03;;;14.00;75.90;;;;;;2567017;53;20976;-73
2021/11/14 09:54:25;;;;;;;7.80;4.50;;;14.00;75.80;;;;;;2343765;54;21446;-72
2021/11/14 09:56:52;;;;;;;7.40;4.47;;;14.00;75.60;;;;;;2343210;54;20977;-72
2021/11/14 09:59:19;;;;;;;6.10;3.62;;;14.00;75.50;;;;;;2590094;53;20957;-72
2021/11/14 10:01:47;;;;;;;7.68;4.03;;;14.00;75.40;;;;;;2576552;53;20921;-72
2021/11/14 10:04:13;;;;;;;5.32;3.10;;;14.00;75.30;;;;;;2332816;54;21016;-72
2021/11/14 10:06:40;;;;;;;6.60;3.28;;;14.00;75.20;;;;;;2344756;54;21269;-72
2021/11/14 10:09:06;;;;;;;6.55;3.55;;;14.00;75.20;;;;;;2330443;54;20909;-72
2021/11/14 10:11:37;;;;;;;6.47;3.87;;;14.00;75.40;;;;;;2555807;53;20965;-72
2021/11/14 10:14:04;;;;;;;6.37;3.45;;;14.00;75.40;;;;;;2337448;54;20967;-72
2021/11/14 10:16:30;;;;;;;6.90;4.22;;;14.00;75.40;;;;;;2325070;54;21786;-72
2021/11/14 10:19:02;;;;;;;7.60;4.07;;;14.00;75.20;;;;;;2331962;54;22110;-73
2021/11/14 10:21:31;;;;;;;7.10;3.83;;;14.00;75.10;;;;;;2323325;54;20932;-72
2021/11/14 10:24:00;;;;;;;7.22;3.90;;;14.00;74.90;;;;;;2343397;54;20937;-72
2021/11/14 10:26:28;;;;;;;6.35;3.90;;;14.00;74.90;;;;;;2580463;53;20973;-73
2021/11/14 10:28:58;;;;;;;8.18;3.95;;;14.10;75.00;;;;;;2327389;54;20909;-72
2021/11/14 10:31:28;;;;;;;6.87;3.87;;;14.00;74.90;;;;;;2342989;54;20917;-72
2021/11/14 10:33:54;;;;;;;5.57;3.47;;;14.00;74.90;;;;;;2323907;54;21005;-72
2021/11/14 10:36:23;;;;;;;6.22;3.50;;;14.00;74.80;;;;;;2343258;54;20893;-72
2021/11/14 10:38:51;;;;;;;6.65;3.72;;;14.00;74.70;;;;;;2589155;53;21032;-72
2021/11/14 10:41:21;;;;;;;5.85;3.40;;;14.00;74.90;;;;;;2576967;53;21004;-73
2021/11/14 10:43:48;;;;;;;5.65;3.35;;;14.00;75.20;;;;;;2333219;54;20981;-73
2021/11/14 10:46:20;;;;;;;6.15;3.33;;;14.10;75.40;;;;;;2590034;53;21053;-72
2021/11/14 10:48:46;;;;;;;6.70;4.30;;;14.10;75.50;;;;;;2347401;54;21735;-72
2021/11/14 10:51:18;;;;;;;6.80;4.18;;;14.10;75.50;;;;;;2589260;53;20901;-72
2021/11/14 10:53:48;;;;;;;7.03;4.53;;;14.10;75.20;;;;;;2344349;54;20918;-72
2021/11/14 10:56:18;;;;;;;6.65;4.05;;;14.10;75.20;;;;;;2570067;53;21004;-72
2021/11/14 10:58:45;;;;;;;5.87;3.62;;;14.10;75.10;;;;;;2332683;54;20913;-73
2021/11/14 11:01:12;;;;;;;6.85;4.22;;;14.10;74.90;;;;;;2326208;54;20917;-72
2021/11/14 11:03:41;;;;;;;7.53;4.05;;;14.20;74.90;;;;;;2588812;53;20969;-72
2021/11/14 11:06:09;;;;;;;6.97;3.60;;;14.20;74.90;;;;;;2590673;53;21462;-72
2021/11/14 11:08:36;;;;;;;5.18;3.05;;;14.10;75.00;;;;;;2590187;53;21829;-72
2021/11/14 11:11:09;;;;;;;4.68;2.85;;;14.20;75.30;;;;;;2590551;53;21386;-72
2021/11/14 11:13:42;;;;;;;4.37;2.72;;;14.20;75.50;;;;;;2343792;54;21004;-72
2021/11/14 11:16:14;;;;;;;5.43;3.00;;;14.10;75.30;;;;;;2560787;53;20914;-72
2021/11/14 11:18:44;;;;;;;5.20;3.00;;;14.30;75.90;;;;;;2588463;53;20929;-72
2021/11/14 11:21:12;;;;;;;5.03;2.92;;;14.40;75.50;;;;;;2560376;53;21752;-72
2021/11/14 11:23:48;;;;;;;4.43;2.90;;;14.20;75.20;;;;;;2343069;54;20925;-72
2021/11/14 11:26:15;;;;;;;4.93;3.17;;;14.20;75.40;;;;;;2590062;53;21485;-72
2021/11/14 11:28:44;;;;;;;6.37;3.25;;;14.30;76.10;;;;;;2332348;54;22719;-72
2021/11/14 11:31:24;;;;;;;5.10;3.42;;;14.40;76.80;;;;;;2569352;53;20941;-72
2021/11/14 11:33:54;;;;;;;7.25;4.00;;;14.40;76.40;;;;;;2563395;53;20969;-73
2021/11/14 11:36:21;;;;;;;6.72;3.97;;;14.40;76.50;;;;;;2549371;53;20917;-72
2021/11/14 11:38:48;;;;;;;5.32;3.87;;;14.50;76.40;;;;;;2342929;54;20964;-72
2021/11/14 11:41:17;;;;;;;6.00;3.58;;;14.60;76.60;;;;;;2586213;53;21463;-73
2021/11/14 11:43:44;;;;;;;5.57;3.45;;;14.60;76.60;;;;;;2555992;53;22165;-73
2021/11/14 11:46:20;;;;;;;4.93;3.45;;;14.70;76.80;;;;;;2549443;53;20957;-73
2021/11/14 11:48:59;;;;;;;5.00;3.25;;;14.80;76.20;;;;;;2580436;53;21000;-73
2021/11/14 11:51:44;;;;;;;5.20;3.10;;;14.80;75.70;;;;;;2311328;54;21029;-72
2021/11/14 11:54:15;;;;;;;5.57;3.05;;;14.90;75.20;;;;;;2340814;54;21371;-72
2021/11/14 11:56:57;;;;;;;4.65;3.15;;;14.90;75.40;;;;;;2589304;53;21756;-73
2021/11/14 11:59:32;;;;;;;3.80;2.30;;;14.90;75.40;;;;;;2324151;55;20925;-72
2021/11/14 12:02:04;;;;;;;4.85;2.78;;;14.90;75.20;;;;;;2563536;53;20898;-72
2021/11/14 12:04:32;;;;;;;4.27;2.80;;;15.00;75.40;;;;;;2322456;54;20893;-73
2021/11/14 12:07:04;;;;;;;3.97;2.50;;;14.90;75.20;;;;;;2343622;54;20929;-72
2021/11/14 12:09:44;;;;;;;4.20;2.90;;;14.90;75.00;;;;;;2347380;54;20976;-73
2021/11/14 12:12:28;;;;;;;4.87;2.78;;;14.90;74.80;;;;;;2556558;53;21759;-73
2021/11/14 12:15:25;;;;;;;4.05;2.55;;;14.90;74.80;;;;;;2561464;53;20997;-72
2021/11/14 12:17:55;;;;;;;3.95;2.55;;;14.90;74.70;;;;;;2583041;53;21040;-73
2021/11/14 12:20:28;;;;;;;4.25;2.90;;;14.90;75.20;;;;;;2319326;54;20984;-73
2021/11/14 12:22:55;;;;;;;;;;;14.90;75.00;;;;;;2550217;53;21796;-72
2021/11/14 12:25:37;;;;;;;3.58;2.10;;;15.10;74.40;;;;;;2583493;53;20176;-73
2021/11/14 12:28:06;;;;;;;3.75;2.42;;;15.00;74.40;;;;;;2568837;53;20926;-73
2021/11/14 12:30:34;;;;;;;4.65;2.33;;;14.90;74.60;;;;;;2319863;54;20913;-73
2021/11/14 12:33:01;;;;;;;4.68;2.78;;;14.90;74.70;;;;;;2589579;53;20929;-72
2021/11/14 12:35:31;;;;;;;4.25;2.40;;;14.90;74.90;;;;;;2343710;54;21414;-72
2021/11/14 12:38:00;;;;;;;4.00;2.55;;;14.90;75.20;;;;;;2324081;54;20917;-73
2021/11/14 12:40:29;;;;;;;3.70;2.37;;;14.90;75.20;;;;;;2335889;54;20893;-73
2021/11/14 12:43:18;;;;;;;4.32;2.90;;;15.00;75.40;;;;;;2323819;54;20993;-72
2021/11/14 12:45:52;;;;;;;4.35;2.17;;;15.00;74.90;;;;;;2589337;53;20978;-72
2021/11/14 12:48:24;;;;;;;4.03;2.28;;;15.10;75.40;;;;;;2339557;54;20949;-73
2021/11/14 12:51:09;;;;;;;5.87;2.55;;;15.00;75.50;;;;;;2573497;53;20997;-73
2021/11/14 12:57:07;;;;;;;4.55;2.85;;;15.00;75.20;;;;;;2338026;54;20953;-73
2021/11/14 12:59:34;;;;;;;4.50;2.60;;;15.20;75.00;;;;;;2564155;53;20993;-73
2021/11/14 13:02:15;;;;;;;4.37;2.83;;;15.20;76.10;;;;;;2309716;54;21012;-73
2021/11/14 13:04:41;;;;;;;4.35;2.75;;;15.30;75.70;;;;;;2321684;53;20981;-73